Time,TemperatureF,DewpointF,PressureIn,WindDirection,WindDirectionDegrees,WindSpeedMPH,WindSpeedGustMPH,Humidity,HourlyPrecipIn,Conditions,Clouds,dailyrainin,SoftwareType,DateUTC
2013-11-08 00:01:00,52.3,46.6,30.10,SW,225,0.0,6.0,0,0.00,,,0.00,meteohub,2013-11-08 08:01:00,
2013-11-08 00:06:00,52.2,46.0,30.10,SW,225,1.0,4.0,0,0.00,,,0.00,meteohub,2013-11-08 08:06:00,
2013-11-08 00:11:00,52.2,46.0,30.10,SW,225,0.0,4.0,0,0.00,,,0.00,meteohub,2013-11-08 08:11:00,
2013-11-08 00:17:00,51.6,46.0,30.10,SW,225,3.0,4.0,0,0.00,,,0.00,meteohub,2013-11-08 08:17:00,
2013-11-08 00:22:00,51.3,46.0,30.10,SW,225,3.0,4.0,0,0.00,,,0.00,meteohub,2013-11-08 08:22:00,
2013-11-08 00:27:00,51.1,46.0,30.10,SW,225,0.0,5.0,0,0.00,,,0.00,meteohub,2013-11-08 08:27:00,
2013-11-08 00:32:00,50.9,46.0,30.11,SW,225,0.0,5.0,0,0.00,,,0.00,meteohub,2013-11-08 08:32:00,
2013-11-08 00:37:00,50.7,46.0,30.11,SW,225,0.0,5.0,0,0.00,,,0.00,meteohub,2013-11-08 08:37:00,
2013-11-08 00:42:00,50.7,46.0,30.11,SW,225,0.0,3.0,0,0.00,,,0.00,meteohub,2013-11-08 08:42:00,
2013-11-08 00:47:00,50.7,46.0,30.11,SW,225,0.0,3.0,0,0.00,,,0.00,meteohub,2013-11-08 08:47:00,
2013-11-08 00:52:00,50.7,46.2,30.11,SW,225,1.0,3.0,0,0.00,,,0.00,meteohub,2013-11-08 08:52:00,
2013-11-08 00:57:00,50.5,46.2,30.11,SW,225,1.0,3.0,0,0.00,,,0.00,meteohub,2013-11-08 08:57:00,
2013-11-08 01:02:00,50.5,46.2,30.11,SW,225,0.0,5.0,0,0.00,,,0.00,meteohub,2013-11-08 09:02:00,
2013-11-08 01:07:00,50.4,46.2,30.11,SW,225,2.0,5.0,0,0.00,,,0.00,meteohub,2013-11-08 09:07:00,
2013-11-08 01:12:00,50.4,46.2,30.11,SW,225,3.0,5.0,0,0.00,,,0.00,meteohub,2013-11-08 09:12:00,
2013-11-08 01:17:00,50.4,46.2,30.11,SW,225,0.0,4.0,0,0.00,,,0.00,meteohub,2013-11-08 09:17:00,
2013-11-08 01:22:00,50.5,46.2,30.11,SW,225,2.0,4.0,0,0.00,,,0.00,meteohub,2013-11-08 09:22:00,
2013-11-08 01:27:00,50.5,46.2,30.11,SW,225,2.0,4.0,0,0.00,,,0.00,meteohub,2013-11-08 09:27:00,
2013-11-08 01:32:00,50.5,46.2,30.11,SW,225,0.0,3.0,0,0.00,,,0.00,meteohub,2013-11-08 09:32:00,
2013-11-08 01:37:00,50.5,46.2,30.11,SW,225,0.0,3.0,0,0.00,,,0.00,meteohub,2013-11-08 09:37:00,
2013-11-08 01:42:00,50.5,46.2,30.11,SW,225,1.0,4.0,0,0.01,,,0.01,meteohub,2013-11-08 09:42:00,
2013-11-08 01:47:00,50.5,46.2,30.12,SW,225,0.0,4.0,0,0.02,,,0.02,meteohub,2013-11-08 09:47:00,
2013-11-08 01:52:00,50.5,46.2,30.12,SW,225,0.0,4.0,0,0.05,,,0.05,meteohub,2013-11-08 09:52:00,
2013-11-08 01:57:00,50.4,46.2,30.12,SW,225,0.0,2.0,0,0.06,,,0.06,meteohub,2013-11-08 09:57:00,
2013-11-08 02:02:00,50.4,46.2,30.12,SW,224,2.0,2.0,0,0.08,,,0.08,meteohub,2013-11-08 10:02:00,
2013-11-08 02:07:00,50.2,46.0,30.11,SSW,207,0.0,4.0,0,0.09,,,0.09,meteohub,2013-11-08 10:07:00,
2013-11-08 02:12:00,50.2,46.0,30.12,SSW,205,0.0,4.0,0,0.09,,,0.09,meteohub,2013-11-08 10:12:00,
2013-11-08 02:17:00,50.2,46.0,30.12,SSW,205,0.0,4.0,0,0.09,,,0.09,meteohub,2013-11-08 10:17:00,
2013-11-08 02:22:00,50.2,46.0,30.12,SSW,205,3.0,5.0,0,0.10,,,0.09,meteohub,2013-11-08 10:22:00,
2013-11-08 02:27:00,50.0,46.0,30.12,SSW,205,0.0,5.0,0,0.10,,,0.10,meteohub,2013-11-08 10:27:00,
2013-11-08 02:32:00,49.8,46.0,30.12,SSW,205,0.0,4.0,0,0.10,,,0.10,meteohub,2013-11-08 10:32:00,
2013-11-08 02:37:00,49.8,46.0,30.12,SSW,205,0.0,4.0,0,0.09,,,0.10,meteohub,2013-11-08 10:37:00,
2013-11-08 02:42:00,49.8,46.0,30.12,SSW,205,0.0,1.0,0,0.08,,,0.10,meteohub,2013-11-08 10:42:00,
2013-11-08 02:47:00,49.8,46.0,30.12,SSW,205,0.0,2.0,0,0.07,,,0.10,meteohub,2013-11-08 10:47:00,
2013-11-08 02:52:00,49.6,46.0,30.12,SSW,205,0.0,2.0,0,0.05,,,0.10,meteohub,2013-11-08 10:52:00,
2013-11-08 02:57:00,49.6,46.0,30.12,SSW,204,0.0,3.0,0,0.03,,,0.10,meteohub,2013-11-08 10:57:00,
2013-11-08 03:02:00,49.6,46.0,30.12,SSE,150,0.0,7.0,0,0.01,,,0.10,meteohub,2013-11-08 11:02:00,
2013-11-08 03:07:00,49.6,46.0,30.12,SE,146,0.0,7.0,0,0.01,,,0.10,meteohub,2013-11-08 11:07:00,
2013-11-08 03:12:00,49.6,46.0,30.12,SE,146,0.0,7.0,0,0.01,,,0.10,meteohub,2013-11-08 11:12:00,
2013-11-08 03:17:00,49.5,46.0,30.12,SE,146,0.0,7.0,0,0.01,,,0.10,meteohub,2013-11-08 11:17:00,
2013-11-08 03:22:00,49.5,46.0,30.12,SE,146,0.0,6.0,0,0.01,,,0.10,meteohub,2013-11-08 11:22:00,
2013-11-08 03:27:00,49.5,46.0,30.12,SE,145,0.0,5.0,0,0.00,,,0.10,meteohub,2013-11-08 11:27:00,
2013-11-08 03:33:00,49.5,46.0,30.12,SE,145,0.0,5.0,0,0.00,,,0.10,meteohub,2013-11-08 11:33:00,
2013-11-08 03:38:00,49.5,46.0,30.12,SE,144,0.0,5.0,0,0.00,,,0.10,meteohub,2013-11-08 11:38:00,
2013-11-08 03:43:00,49.3,46.0,30.12,SE,140,5.0,6.0,0,0.00,,,0.10,meteohub,2013-11-08 11:43:00,
2013-11-08 03:48:00,49.3,45.9,30.12,SE,140,0.0,6.0,0,0.00,,,0.10,meteohub,2013-11-08 11:48:00,
2013-11-08 03:53:00,49.3,45.9,30.12,SE,140,0.0,6.0,0,0.00,,,0.10,meteohub,2013-11-08 11:53:00,
2013-11-08 03:58:00,49.3,45.9,30.12,SE,140,0.0,6.0,0,0.00,,,0.10,meteohub,2013-11-08 11:58:00,
2013-11-08 04:03:00,49.3,45.9,30.12,SE,140,0.0,5.0,0,0.00,,,0.10,meteohub,2013-11-08 12:03:00,
2013-11-08 04:09:00,49.5,45.9,30.12,SE,140,0.0,5.0,0,0.00,,,0.10,meteohub,2013-11-08 12:09:00,
2013-11-08 04:14:00,49.5,45.9,30.12,SE,140,0.0,4.0,0,0.00,,,0.10,meteohub,2013-11-08 12:14:00,
2013-11-08 04:19:00,49.5,45.9,30.12,SE,138,1.0,4.0,0,0.01,,,0.11,meteohub,2013-11-08 12:19:00,
2013-11-08 04:24:00,49.5,45.9,30.12,SE,134,2.0,5.0,0,0.01,,,0.11,meteohub,2013-11-08 12:24:00,
2013-11-08 04:29:00,49.3,45.9,30.12,SE,133,2.0,6.0,0,0.01,,,0.11,meteohub,2013-11-08 12:29:00,
2013-11-08 04:34:00,49.3,45.9,30.12,SE,133,1.0,6.0,0,0.01,,,0.11,meteohub,2013-11-08 12:34:00,
2013-11-08 04:39:00,49.3,45.9,30.12,SSW,204,7.0,7.0,0,0.02,,,0.11,meteohub,2013-11-08 12:39:00,
2013-11-08 04:45:00,49.5,45.9,30.12,SSW,200,4.0,8.0,0,0.04,,,0.14,meteohub,2013-11-08 12:45:00,
2013-11-08 04:50:00,49.6,45.9,30.12,SSW,200,2.0,8.0,0,0.06,,,0.16,meteohub,2013-11-08 12:50:00,
2013-11-08 04:55:00,49.6,45.9,30.12,South,178,2.0,8.0,0,0.06,,,0.16,meteohub,2013-11-08 12:55:00,
2013-11-08 05:00:00,49.5,45.9,30.12,South,177,0.0,7.0,0,0.06,,,0.16,meteohub,2013-11-08 13:00:00,
2013-11-08 05:05:00,49.5,45.9,30.12,South,176,2.0,7.0,0,0.06,,,0.16,meteohub,2013-11-08 13:05:00,
2013-11-08 05:10:00,49.5,45.9,30.12,South,177,0.0,7.0,0,0.06,,,0.16,meteohub,2013-11-08 13:10:00,
2013-11-08 05:15:00,49.3,45.9,30.12,South,175,2.0,4.0,0,0.06,,,0.16,meteohub,2013-11-08 13:15:00,
2013-11-08 05:21:00,49.3,45.9,30.12,South,173,0.0,4.0,0,0.05,,,0.16,meteohub,2013-11-08 13:21:00,
2013-11-08 05:26:00,49.3,45.9,30.13,South,171,0.0,6.0,0,0.05,,,0.16,meteohub,2013-11-08 13:26:00,
2013-11-08 05:31:00,49.1,45.9,30.12,SSE,168,0.0,6.0,0,0.05,,,0.16,meteohub,2013-11-08 13:31:00,
2013-11-08 05:36:00,49.1,45.9,30.12,SSE,167,1.0,5.0,0,0.03,,,0.16,meteohub,2013-11-08 13:36:00,
2013-11-08 05:41:00,48.9,45.9,30.12,SSE,167,0.0,5.0,0,0.01,,,0.16,meteohub,2013-11-08 13:41:00,
2013-11-08 05:46:00,48.9,45.9,30.13,SSE,158,7.0,7.0,0,0.00,,,0.16,meteohub,2013-11-08 13:46:00,
2013-11-08 05:51:00,49.3,45.9,30.13,SSE,162,4.0,7.0,0,0.01,,,0.17,meteohub,2013-11-08 13:51:00,
2013-11-08 05:57:00,49.6,45.5,30.13,WSW,244,7.0,15.0,0,0.01,,,0.17,meteohub,2013-11-08 13:57:00,
2013-11-08 06:02:00,49.8,45.5,30.13,WSW,237,3.0,15.0,0,0.01,,,0.17,meteohub,2013-11-08 14:02:00,
2013-11-08 06:07:00,49.8,45.9,30.13,SSW,207,1.0,15.0,0,0.01,,,0.17,meteohub,2013-11-08 14:07:00,
2013-11-08 06:12:00,50.0,45.9,30.13,SSW,199,3.0,15.0,0,0.01,,,0.17,meteohub,2013-11-08 14:12:00,
2013-11-08 06:17:00,50.0,45.9,30.13,WSW,247,4.0,8.0,0,0.01,,,0.17,meteohub,2013-11-08 14:17:00,
2013-11-08 06:22:00,49.8,45.7,30.13,SW,231,4.0,8.0,0,0.01,,,0.17,meteohub,2013-11-08 14:22:00,
2013-11-08 06:27:00,49.6,45.7,30.13,SW,231,0.0,8.0,0,0.01,,,0.17,meteohub,2013-11-08 14:27:00,
2013-11-08 06:32:00,49.6,45.7,30.12,WSW,237,4.0,7.0,0,0.01,,,0.17,meteohub,2013-11-08 14:32:00,
2013-11-08 06:37:00,49.6,45.7,30.13,WSW,240,2.0,8.0,0,0.01,,,0.17,meteohub,2013-11-08 14:37:00,
2013-11-08 06:42:00,49.6,45.7,30.13,WSW,240,0.0,8.0,0,0.01,,,0.17,meteohub,2013-11-08 14:42:00,
2013-11-08 06:47:00,49.6,45.7,30.12,WSW,240,0.0,8.0,0,0.01,,,0.17,meteohub,2013-11-08 14:47:00,
2013-11-08 06:52:00,49.5,45.7,30.12,WSW,240,0.0,3.0,0,0.00,,,0.17,meteohub,2013-11-08 14:52:00,
2013-11-08 06:57:00,49.3,45.7,30.13,WSW,240,0.0,1.0,0,0.00,,,0.17,meteohub,2013-11-08 14:57:00,
2013-11-08 07:02:00,49.3,45.7,30.13,WSW,240,0.0,1.0,0,0.00,,,0.17,meteohub,2013-11-08 15:02:00,
2013-11-08 07:07:00,49.3,45.7,30.13,WSW,240,2.0,2.0,0,0.00,,,0.17,meteohub,2013-11-08 15:07:00,
2013-11-08 07:12:00,49.1,45.7,30.13,SSW,204,0.0,4.0,0,0.00,,,0.17,meteohub,2013-11-08 15:12:00,
2013-11-08 07:17:00,49.1,45.7,30.13,SSE,161,2.0,4.0,0,0.00,,,0.17,meteohub,2013-11-08 15:17:00,
2013-11-08 07:22:00,48.9,45.7,30.13,SE,138,2.0,7.0,0,0.00,,,0.17,meteohub,2013-11-08 15:22:00,
2013-11-08 07:27:00,48.9,45.7,30.13,SE,135,0.0,7.0,0,0.00,,,0.17,meteohub,2013-11-08 15:27:00,
2013-11-08 07:32:00,48.9,45.7,30.13,SE,126,0.0,7.0,0,0.00,,,0.17,meteohub,2013-11-08 15:32:00,
2013-11-08 07:37:00,48.9,45.7,30.14,SE,125,0.0,7.0,0,0.00,,,0.17,meteohub,2013-11-08 15:37:00,
2013-11-08 07:42:00,48.9,45.7,30.14,SE,124,1.0,7.0,0,0.00,,,0.17,meteohub,2013-11-08 15:42:00,
2013-11-08 07:47:00,48.9,45.7,30.14,ESE,123,0.0,6.0,0,0.01,,,0.18,meteohub,2013-11-08 15:47:00,
2013-11-08 07:52:00,48.9,45.7,30.14,ESE,123,1.0,6.0,0,0.01,,,0.18,meteohub,2013-11-08 15:52:00,
2013-11-08 07:57:00,48.9,45.7,30.14,ESE,123,1.0,6.0,0,0.01,,,0.18,meteohub,2013-11-08 15:57:00,
2013-11-08 08:02:00,48.9,45.7,30.14,ESE,123,2.0,6.0,0,0.01,,,0.18,meteohub,2013-11-08 16:02:00,
2013-11-08 08:07:00,48.9,45.7,30.14,ESE,122,2.0,6.0,0,0.01,,,0.18,meteohub,2013-11-08 16:07:00,
2013-11-08 08:12:00,48.9,45.7,30.14,ESE,122,2.0,5.0,0,0.01,,,0.18,meteohub,2013-11-08 16:12:00,
2013-11-08 08:17:00,48.9,45.7,30.14,ESE,121,0.0,5.0,0,0.01,,,0.18,meteohub,2013-11-08 16:17:00,
2013-11-08 08:22:00,49.1,45.7,30.15,ESE,121,0.0,5.0,0,0.02,,,0.19,meteohub,2013-11-08 16:22:00,
2013-11-08 08:27:00,49.1,45.7,30.15,ESE,110,1.0,6.0,0,0.02,,,0.19,meteohub,2013-11-08 16:27:00,
2013-11-08 08:32:00,49.1,45.7,30.15,ESE,117,0.0,9.0,0,0.02,,,0.19,meteohub,2013-11-08 16:32:00,
2013-11-08 08:37:00,49.3,45.7,30.14,ESE,109,1.0,9.0,0,0.02,,,0.19,meteohub,2013-11-08 16:37:00,
2013-11-08 08:42:00,49.6,45.7,30.14,ESE,115,5.0,9.0,0,0.02,,,0.19,meteohub,2013-11-08 16:42:00,
2013-11-08 08:47:00,50.2,45.7,30.14,SE,126,2.0,8.0,0,0.01,,,0.19,meteohub,2013-11-08 16:47:00,
2013-11-08 08:52:00,50.4,45.3,30.15,SE,128,1.0,9.0,0,0.01,,,0.19,meteohub,2013-11-08 16:52:00,
2013-11-08 08:57:00,50.4,45.3,30.15,SSE,153,0.0,9.0,0,0.01,,,0.19,meteohub,2013-11-08 16:57:00,
2013-11-08 09:02:00,50.2,45.5,30.15,SE,144,0.0,9.0,0,0.01,,,0.19,meteohub,2013-11-08 17:02:00,
2013-11-08 09:07:00,50.2,45.5,30.15,SE,131,2.0,9.0,0,0.01,,,0.19,meteohub,2013-11-08 17:07:00,
2013-11-08 09:12:00,50.2,45.5,30.15,ESE,117,4.0,10.0,0,0.01,,,0.19,meteohub,2013-11-08 17:12:00,
2013-11-08 09:17:00,50.2,45.5,30.14,SE,126,4.0,10.0,0,0.01,,,0.19,meteohub,2013-11-08 17:17:00,
2013-11-08 09:22:00,50.2,45.5,30.14,ESE,119,1.0,10.0,0,0.00,,,0.19,meteohub,2013-11-08 17:22:00,
2013-11-08 09:27:00,50.2,45.5,30.14,ESE,123,2.0,10.0,0,0.00,,,0.19,meteohub,2013-11-08 17:27:00,
2013-11-08 09:32:00,50.4,45.5,30.14,ESE,119,2.0,9.0,0,0.00,,,0.19,meteohub,2013-11-08 17:32:00,
2013-11-08 09:37:00,50.5,45.5,30.14,ESE,117,1.0,9.0,0,0.00,,,0.19,meteohub,2013-11-08 17:37:00,
2013-11-08 09:42:00,50.7,45.5,30.14,ESE,117,1.0,6.0,0,0.00,,,0.19,meteohub,2013-11-08 17:42:00,
2013-11-08 09:47:00,51.1,45.5,30.14,East,87,2.0,6.0,0,0.00,,,0.19,meteohub,2013-11-08 17:47:00,
2013-11-08 09:52:00,51.3,45.5,30.14,East,89,0.0,6.0,0,0.00,,,0.19,meteohub,2013-11-08 17:52:00,
2013-11-08 09:57:00,51.4,45.5,30.14,East,90,0.0,6.0,0,0.00,,,0.19,meteohub,2013-11-08 17:57:00,
2013-11-08 10:02:00,51.4,45.5,30.14,East,91,1.0,7.0,0,0.00,,,0.19,meteohub,2013-11-08 18:02:00,
2013-11-08 10:07:00,51.4,45.5,30.14,East,92,2.0,7.0,0,0.00,,,0.19,meteohub,2013-11-08 18:07:00,
2013-11-08 10:12:00,51.4,45.5,30.14,East,92,7.0,7.0,0,0.00,,,0.19,meteohub,2013-11-08 18:12:00,
2013-11-08 10:17:00,51.1,45.5,30.15,East,94,2.0,9.0,0,0.00,,,0.19,meteohub,2013-11-08 18:17:00,
2013-11-08 10:22:00,51.1,45.5,30.15,East,94,1.0,9.0,0,0.00,,,0.19,meteohub,2013-11-08 18:22:00,
2013-11-08 10:27:00,51.1,45.5,30.15,East,94,7.0,9.0,0,0.00,,,0.19,meteohub,2013-11-08 18:27:00,
2013-11-08 10:32:00,51.1,45.9,30.15,SSE,159,6.0,7.0,0,0.00,,,0.19,meteohub,2013-11-08 18:32:00,
2013-11-08 10:37:00,51.3,45.9,30.15,South,173,0.0,7.0,0,0.00,,,0.19,meteohub,2013-11-08 18:37:00,
2013-11-08 10:42:00,51.4,45.9,30.15,South,171,5.0,7.0,0,0.00,,,0.19,meteohub,2013-11-08 18:42:00,
2013-11-08 10:47:00,51.4,45.9,30.15,South,170,5.0,9.0,0,0.00,,,0.19,meteohub,2013-11-08 18:47:00,
2013-11-08 10:53:00,51.6,45.9,30.15,South,171,1.0,9.0,0,0.00,,,0.19,meteohub,2013-11-08 18:53:00,
2013-11-08 10:58:00,51.6,45.9,30.15,SSE,163,4.0,7.0,0,0.00,,,0.19,meteohub,2013-11-08 18:58:00,
2013-11-08 11:03:00,51.6,45.9,30.15,SSE,164,2.0,8.0,0,0.00,,,0.19,meteohub,2013-11-08 19:03:00,
2013-11-08 11:08:00,51.6,45.9,30.15,SSE,163,2.0,8.0,0,0.00,,,0.19,meteohub,2013-11-08 19:08:00,
2013-11-08 11:13:00,51.6,46.0,30.15,South,186,4.0,8.0,0,0.00,,,0.19,meteohub,2013-11-08 19:13:00,
2013-11-08 11:18:00,51.6,46.0,30.15,SSW,202,3.0,7.0,0,0.00,,,0.19,meteohub,2013-11-08 19:18:00,
2013-11-08 11:24:00,51.6,46.0,30.15,SSW,197,3.0,7.0,0,0.00,,,0.19,meteohub,2013-11-08 19:24:00,
2013-11-08 11:29:00,51.8,46.0,30.15,South,186,3.0,7.0,0,0.00,,,0.19,meteohub,2013-11-08 19:29:00,
2013-11-08 11:34:00,52.0,46.0,30.14,South,188,0.0,7.0,0,0.00,,,0.19,meteohub,2013-11-08 19:34:00,
2013-11-08 11:39:00,52.0,46.0,30.14,South,188,3.0,7.0,0,0.00,,,0.19,meteohub,2013-11-08 19:39:00,
2013-11-08 11:44:00,52.0,46.0,30.14,South,188,0.0,6.0,0,0.00,,,0.19,meteohub,2013-11-08 19:44:00,
2013-11-08 11:49:00,52.0,46.0,30.14,South,188,2.0,6.0,0,0.00,,,0.19,meteohub,2013-11-08 19:49:00,
2013-11-08 11:54:00,52.2,46.0,30.14,South,188,1.0,6.0,0,0.00,,,0.19,meteohub,2013-11-08 19:54:00,
2013-11-08 12:00:00,52.2,46.0,30.14,SSW,209,4.0,5.0,0,0.00,,,0.19,meteohub,2013-11-08 20:00:00,
2013-11-08 12:05:00,51.8,46.0,30.13,SW,216,4.0,5.0,0,0.00,,,0.19,meteohub,2013-11-08 20:05:00,
2013-11-08 12:10:00,51.8,46.2,30.13,SSW,200,7.0,8.0,0,0.00,,,0.19,meteohub,2013-11-08 20:10:00,
2013-11-08 12:15:00,52.0,46.2,30.13,South,186,4.0,11.0,0,0.00,,,0.19,meteohub,2013-11-08 20:15:00,
2013-11-08 12:20:00,52.3,46.2,30.13,SSW,208,3.0,11.0,0,0.00,,,0.19,meteohub,2013-11-08 20:20:00,
2013-11-08 12:25:00,52.3,46.2,30.13,South,185,3.0,11.0,0,0.00,,,0.19,meteohub,2013-11-08 20:25:00,
2013-11-08 12:30:00,52.5,46.2,30.13,South,184,3.0,11.0,0,0.00,,,0.19,meteohub,2013-11-08 20:30:00,
2013-11-08 12:36:00,52.7,46.2,30.12,SSW,200,3.0,10.0,0,0.00,,,0.19,meteohub,2013-11-08 20:36:00,
2013-11-08 12:41:00,52.5,46.2,30.12,SSW,212,4.0,9.0,0,0.00,,,0.19,meteohub,2013-11-08 20:41:00,
2013-11-08 12:46:00,52.5,46.2,30.12,SSW,209,3.0,8.0,0,0.00,,,0.19,meteohub,2013-11-08 20:46:00,
2013-11-08 12:51:00,52.3,46.2,30.12,SSW,200,5.0,9.0,0,0.00,,,0.19,meteohub,2013-11-08 20:51:00,
2013-11-08 12:56:00,52.3,46.4,30.12,SW,223,8.0,9.0,0,0.00,,,0.19,meteohub,2013-11-08 20:56:00,
2013-11-08 13:01:00,52.2,46.4,30.12,SW,221,6.0,9.0,0,0.00,,,0.19,meteohub,2013-11-08 21:01:00,
2013-11-08 13:06:00,52.0,46.4,30.12,SW,218,5.0,12.0,0,0.00,,,0.19,meteohub,2013-11-08 21:06:00,
2013-11-08 13:12:00,52.0,46.4,30.12,SSW,207,3.0,12.0,0,0.00,,,0.19,meteohub,2013-11-08 21:12:00,
2013-11-08 13:17:00,52.0,46.4,30.12,SSW,211,5.0,11.0,0,0.00,,,0.19,meteohub,2013-11-08 21:17:00,
2013-11-08 13:22:00,51.6,46.4,30.12,SSW,203,6.0,10.0,0,0.00,,,0.19,meteohub,2013-11-08 21:22:00,
2013-11-08 13:27:00,51.6,46.4,30.11,SSW,198,6.0,10.0,0,0.00,,,0.19,meteohub,2013-11-08 21:27:00,
2013-11-08 13:32:00,51.8,46.4,30.11,SSW,198,3.0,10.0,0,0.00,,,0.19,meteohub,2013-11-08 21:32:00,
2013-11-08 13:37:00,52.0,46.4,30.11,SSW,209,8.0,8.0,0,0.00,,,0.19,meteohub,2013-11-08 21:37:00,
2013-11-08 13:42:00,52.0,46.4,30.11,SSW,211,5.0,8.0,0,0.00,,,0.19,meteohub,2013-11-08 21:42:00,
2013-11-08 13:47:00,52.0,46.4,30.11,SSW,202,4.0,8.0,0,0.00,,,0.19,meteohub,2013-11-08 21:47:00,
2013-11-08 13:52:00,52.0,46.4,30.11,SSE,166,1.0,8.0,0,0.00,,,0.19,meteohub,2013-11-08 21:52:00,
2013-11-08 13:57:00,52.2,46.4,30.11,SSE,165,2.0,7.0,0,0.00,,,0.19,meteohub,2013-11-08 21:57:00,
2013-11-08 14:03:00,52.2,46.4,30.11,South,175,1.0,6.0,0,0.00,,,0.19,meteohub,2013-11-08 22:03:00,
2013-11-08 14:08:00,52.3,46.6,30.11,South,175,1.0,6.0,0,0.00,,,0.19,meteohub,2013-11-08 22:08:00,
2013-11-08 14:13:00,52.5,46.6,30.11,South,175,0.0,8.0,0,0.00,,,0.19,meteohub,2013-11-08 22:13:00,
2013-11-08 14:18:00,52.9,46.6,30.11,South,175,0.0,5.0,0,0.00,,,0.19,meteohub,2013-11-08 22:18:00,
2013-11-08 14:23:00,53.1,46.6,30.11,South,175,0.0,5.0,0,0.00,,,0.19,meteohub,2013-11-08 22:23:00,
2013-11-08 14:28:00,53.1,46.6,30.11,South,175,0.0,5.0,0,0.00,,,0.19,meteohub,2013-11-08 22:28:00,
2013-11-08 14:34:00,53.1,46.6,30.11,South,175,0.0,4.0,0,0.00,,,0.19,meteohub,2013-11-08 22:34:00,
2013-11-08 14:39:00,52.9,46.6,30.11,South,175,0.0,5.0,0,0.00,,,0.19,meteohub,2013-11-08 22:39:00,
2013-11-08 14:44:00,52.7,46.6,30.11,South,175,0.0,5.0,0,0.00,,,0.19,meteohub,2013-11-08 22:44:00,
2013-11-08 14:49:00,52.7,46.6,30.11,South,175,1.0,5.0,0,0.00,,,0.19,meteohub,2013-11-08 22:49:00,
2013-11-08 14:54:00,52.5,46.6,30.11,South,175,0.0,4.0,0,0.00,,,0.19,meteohub,2013-11-08 22:54:00,
2013-11-08 14:59:00,52.5,46.6,30.11,South,175,0.0,4.0,0,0.00,,,0.19,meteohub,2013-11-08 22:59:00,
2013-11-08 15:04:00,52.7,46.6,30.11,South,175,0.0,2.0,0,0.00,,,0.19,meteohub,2013-11-08 23:04:00,
2013-11-08 15:10:00,52.5,46.6,30.11,South,175,0.0,2.0,0,0.00,,,0.19,meteohub,2013-11-08 23:10:00,
2013-11-08 15:15:00,52.5,46.6,30.11,South,175,0.0,2.0,0,0.00,,,0.19,meteohub,2013-11-08 23:15:00,
2013-11-08 15:20:00,52.5,46.6,30.11,South,175,0.0,2.0,0,0.00,,,0.19,meteohub,2013-11-08 23:20:00,
2013-11-08 15:25:00,52.5,46.6,30.11,South,175,0.0,5.0,0,0.00,,,0.19,meteohub,2013-11-08 23:25:00,
2013-11-08 15:30:00,52.3,46.6,30.11,South,175,0.0,5.0,0,0.00,,,0.19,meteohub,2013-11-08 23:30:00,
2013-11-08 15:35:00,52.3,46.6,30.11,South,175,0.0,5.0,0,0.00,,,0.19,meteohub,2013-11-08 23:35:00,
2013-11-08 15:41:00,52.3,46.6,30.11,South,175,0.0,2.0,0,0.00,,,0.19,meteohub,2013-11-08 23:41:00,
2013-11-08 15:46:00,52.3,46.6,30.11,South,175,0.0,1.0,0,0.00,,,0.19,meteohub,2013-11-08 23:46:00,
2013-11-08 15:51:00,52.3,46.6,30.10,South,175,0.0,1.0,0,0.00,,,0.19,meteohub,2013-11-08 23:51:00,
2013-11-08 15:56:00,52.2,46.6,30.10,South,175,0.0,1.0,0,0.00,,,0.19,meteohub,2013-11-08 23:56:00,
2013-11-08 16:01:00,52.0,46.6,30.10,South,175,0.0,1.0,0,0.00,,,0.19,meteohub,2013-11-09 00:01:00,
2013-11-08 16:06:00,52.0,46.6,30.10,South,175,0.0,1.0,0,0.00,,,0.19,meteohub,2013-11-09 00:06:00,
2013-11-08 16:11:00,51.6,46.6,30.10,South,175,0.0,1.0,0,0.00,,,0.00,meteohub,2013-11-09 00:11:00,
2013-11-08 16:17:00,51.6,46.6,30.10,South,175,0.0,1.0,0,0.00,,,0.00,meteohub,2013-11-09 00:17:00,
2013-11-08 16:22:00,51.6,46.6,30.10,South,175,0.0,1.0,0,0.00,,,0.00,meteohub,2013-11-09 00:22:00,
2013-11-08 16:27:00,51.6,46.6,30.10,South,175,0.0,1.0,0,0.00,,,0.00,meteohub,2013-11-09 00:27:00,
2013-11-08 16:32:00,51.6,46.6,30.10,South,175,0.0,1.0,0,0.00,,,0.00,meteohub,2013-11-09 00:32:00,
2013-11-08 16:37:00,51.4,46.6,30.10,South,175,0.0,1.0,0,0.00,,,0.00,meteohub,2013-11-09 00:37:00,
2013-11-08 16:42:00,51.4,46.4,30.09,South,175,0.0,1.0,0,0.00,,,0.00,meteohub,2013-11-09 00:42:00,
2013-11-08 16:47:00,51.3,46.4,30.09,South,175,0.0,1.0,0,0.00,,,0.00,meteohub,2013-11-09 00:47:00,
2013-11-08 16:52:00,51.3,46.4,30.09,South,175,0.0,0.0,0,0.00,,,0.00,meteohub,2013-11-09 00:52:00,
2013-11-08 16:57:00,51.1,46.4,30.09,South,175,0.0,0.0,0,0.00,,,0.00,meteohub,2013-11-09 00:57:00,
2013-11-08 17:02:00,51.1,46.4,30.09,South,175,0.0,0.0,0,0.00,,,0.00,meteohub,2013-11-09 01:02:00,
2013-11-08 17:07:00,50.9,46.4,30.09,South,175,0.0,0.0,0,0.00,,,0.00,meteohub,2013-11-09 01:07:00,
2013-11-08 17:12:00,50.7,46.4,30.09,South,175,0.0,0.0,0,0.00,,,0.00,meteohub,2013-11-09 01:12:00,
2013-11-08 17:17:00,50.7,46.4,30.09,South,175,0.0,0.0,0,0.00,,,0.00,meteohub,2013-11-09 01:17:00,
2013-11-08 17:22:00,50.7,46.4,30.09,South,175,0.0,0.0,0,0.00,,,0.00,meteohub,2013-11-09 01:22:00,
2013-11-08 17:27:00,50.5,46.4,30.09,South,175,0.0,0.0,0,0.00,,,0.00,meteohub,2013-11-09 01:27:00,
2013-11-08 17:32:00,50.4,46.4,30.09,South,175,0.0,0.0,0,0.00,,,0.00,meteohub,2013-11-09 01:32:00,
2013-11-08 17:37:00,50.2,46.0,30.09,South,175,0.0,0.0,0,0.00,,,0.00,meteohub,2013-11-09 01:37:00,
2013-11-08 17:43:00,50.2,46.2,30.09,South,175,0.0,0.0,0,0.00,,,0.00,meteohub,2013-11-09 01:43:00,
2013-11-08 17:48:00,50.0,45.9,30.09,South,175,0.0,6.0,0,0.00,,,0.00,meteohub,2013-11-09 01:48:00,
2013-11-08 17:53:00,49.8,46.2,30.09,South,174,1.0,6.0,0,0.00,,,0.00,meteohub,2013-11-09 01:53:00,
2013-11-08 17:58:00,49.8,46.2,30.09,South,174,0.0,6.0,0,0.00,,,0.00,meteohub,2013-11-09 01:58:00,
2013-11-08 18:03:00,49.6,46.2,30.09,South,173,0.0,5.0,0,0.00,,,0.00,meteohub,2013-11-09 02:03:00,
2013-11-08 18:08:00,49.5,45.9,30.09,South,171,0.0,5.0,0,0.00,,,0.00,meteohub,2013-11-09 02:08:00,
2013-11-08 18:13:00,49.5,45.9,30.09,South,171,0.0,5.0,0,0.00,,,0.00,meteohub,2013-11-09 02:13:00,
2013-11-08 18:19:00,49.3,45.9,30.09,South,171,0.0,4.0,0,0.00,,,0.00,meteohub,2013-11-09 02:19:00,
2013-11-08 18:24:00,49.3,45.9,30.09,South,169,0.0,2.0,0,0.00,,,0.00,meteohub,2013-11-09 02:24:00,
2013-11-08 18:29:00,48.9,45.9,30.09,South,169,0.0,5.0,0,0.00,,,0.00,meteohub,2013-11-09 02:29:00,
2013-11-08 18:34:00,48.9,45.9,30.08,South,169,0.0,5.0,0,0.00,,,0.00,meteohub,2013-11-09 02:34:00,
2013-11-08 18:39:00,48.7,45.9,30.08,South,169,0.0,5.0,0,0.00,,,0.00,meteohub,2013-11-09 02:39:00,
2013-11-08 18:44:00,48.7,45.7,30.09,SSE,167,0.0,2.0,0,0.00,,,0.00,meteohub,2013-11-09 02:44:00,
2013-11-08 18:49:00,48.6,45.7,30.09,SSE,167,0.0,2.0,0,0.00,,,0.00,meteohub,2013-11-09 02:49:00,
2013-11-08 18:55:00,48.6,45.7,30.09,SSE,167,0.0,2.0,0,0.00,,,0.00,meteohub,2013-11-09 02:55:00,
2013-11-08 19:00:00,48.6,45.7,30.09,SSE,167,0.0,2.0,0,0.00,,,0.00,meteohub,2013-11-09 03:00:00,
2013-11-08 19:05:00,48.4,45.7,30.09,SSE,167,0.0,0.0,0,0.00,,,0.00,meteohub,2013-11-09 03:05:00,
2013-11-08 19:10:00,48.4,45.7,30.09,SSE,167,0.0,0.0,0,0.00,,,0.00,meteohub,2013-11-09 03:10:00,
2013-11-08 19:15:00,48.4,45.7,30.09,SSE,167,0.0,0.0,0,0.00,,,0.00,meteohub,2013-11-09 03:15:00,
2013-11-08 19:20:00,48.2,45.7,30.09,SSE,167,1.0,0.0,0,0.00,,,0.00,meteohub,2013-11-09 03:20:00,
2013-11-08 19:26:00,48.0,45.7,30.09,SSE,167,0.0,1.0,0,0.00,,,0.00,meteohub,2013-11-09 03:26:00,
2013-11-08 19:31:00,48.0,45.7,30.09,SSE,167,0.0,1.0,0,0.00,,,0.00,meteohub,2013-11-09 03:31:00,
2013-11-08 19:36:00,48.0,45.5,30.09,SSE,166,0.0,2.0,0,0.00,,,0.00,meteohub,2013-11-09 03:36:00,
2013-11-08 19:41:00,47.8,45.5,30.08,SSE,166,0.0,4.0,0,0.00,,,0.00,meteohub,2013-11-09 03:41:00,
2013-11-08 19:46:00,47.8,45.5,30.08,SSE,166,1.0,5.0,0,0.00,,,0.00,meteohub,2013-11-09 03:46:00,
2013-11-08 19:51:00,47.8,45.5,30.08,SSE,166,0.0,5.0,0,0.00,,,0.00,meteohub,2013-11-09 03:51:00,
2013-11-08 19:56:00,47.7,45.5,30.08,SSE,165,0.0,5.0,0,0.00,,,0.00,meteohub,2013-11-09 03:56:00,
2013-11-08 20:02:00,47.7,45.5,30.08,SSE,163,0.0,5.0,0,0.00,,,0.00,meteohub,2013-11-09 04:02:00,
2013-11-08 20:07:00,47.7,45.5,30.08,SSE,161,0.0,4.0,0,0.00,,,0.00,meteohub,2013-11-09 04:07:00,
2013-11-08 20:12:00,47.7,45.5,30.08,SSE,160,0.0,4.0,0,0.00,,,0.00,meteohub,2013-11-09 04:12:00,
2013-11-08 20:17:00,47.7,45.5,30.08,SSE,153,1.0,5.0,0,0.00,,,0.00,meteohub,2013-11-09 04:17:00,
2013-11-08 20:22:00,47.5,45.5,30.08,SSE,154,1.0,5.0,0,0.00,,,0.00,meteohub,2013-11-09 04:22:00,
2013-11-08 20:27:00,47.5,45.5,30.08,SE,140,7.0,7.0,0,0.00,,,0.00,meteohub,2013-11-09 04:27:00,
2013-11-08 20:32:00,47.5,45.5,30.08,SE,135,0.0,6.0,0,0.00,,,0.00,meteohub,2013-11-09 04:32:00,
2013-11-08 20:37:00,47.3,45.5,30.08,SE,127,2.0,7.0,0,0.00,,,0.00,meteohub,2013-11-09 04:37:00,
2013-11-08 20:42:00,47.3,45.5,30.08,SE,127,0.0,7.0,0,0.00,,,0.00,meteohub,2013-11-09 04:42:00,
2013-11-08 20:47:00,47.1,45.5,30.07,SE,126,4.0,6.0,0,0.00,,,0.00,meteohub,2013-11-09 04:47:00,
2013-11-08 20:52:00,47.1,45.5,30.07,ESE,118,2.0,6.0,0,0.00,,,0.00,meteohub,2013-11-09 04:52:00,
2013-11-08 20:57:00,47.1,45.5,30.07,ESE,115,2.0,6.0,0,0.00,,,0.00,meteohub,2013-11-09 04:57:00,
2013-11-08 21:01:00,47.1,45.5,30.07,ESE,112,2.0,6.0,0,0.00,,,0.00,meteohub,2013-11-09 05:01:00,
2013-11-08 21:02:00,47.1,45.9,30.08,ESE,114,2.0,6.0,0,0.00,,,0.00,meteohub,2013-11-09 05:02:00,
2013-11-08 21:04:00,47.1,45.9,30.08,ESE,114,2.0,6.0,0,0.00,,,0.00,meteohub,2013-11-09 05:04:00,
2013-11-08 21:09:00,47.1,45.5,30.08,ESE,114,0.0,7.0,0,0.00,,,0.00,meteohub,2013-11-09 05:09:00,
2013-11-08 21:12:00,46.9,45.3,30.07,ESE,114,0.0,7.0,0,0.00,,,0.00,meteohub,2013-11-09 05:12:00,
2013-11-08 21:17:00,46.9,45.7,30.08,ESE,114,0.0,6.0,0,0.00,,,0.00,meteohub,2013-11-09 05:17:00,
2013-11-08 21:22:00,46.8,45.3,30.08,ESE,114,0.0,6.0,0,0.00,,,0.00,meteohub,2013-11-09 05:22:00,
2013-11-08 21:27:00,46.8,45.3,30.07,ESE,114,0.0,6.0,0,0.00,,,0.00,meteohub,2013-11-09 05:27:00,
2013-11-08 21:32:00,46.8,45.3,30.07,ESE,114,0.0,6.0,0,0.00,,,0.00,meteohub,2013-11-09 05:32:00,
2013-11-08 21:37:00,46.6,45.3,30.07,ESE,114,0.0,6.0,0,0.00,,,0.00,meteohub,2013-11-09 05:37:00,
2013-11-08 21:42:00,46.6,45.3,30.07,ESE,114,0.0,6.0,0,0.00,,,0.00,meteohub,2013-11-09 05:42:00,
2013-11-08 21:47:00,46.6,45.3,30.07,ESE,114,0.0,2.0,0,0.00,,,0.00,meteohub,2013-11-09 05:47:00,
2013-11-08 21:52:00,46.4,45.3,30.07,ESE,114,1.0,2.0,0,0.00,,,0.00,meteohub,2013-11-09 05:52:00,
2013-11-08 21:57:00,46.2,45.3,30.07,ESE,114,1.0,5.0,0,0.00,,,0.00,meteohub,2013-11-09 05:57:00,
2013-11-08 22:02:00,46.2,45.3,30.07,ESE,113,0.0,5.0,0,0.00,,,0.00,meteohub,2013-11-09 06:02:00,
2013-11-08 22:07:00,46.2,45.3,30.07,ESE,113,4.0,7.0,0,0.00,,,0.00,meteohub,2013-11-09 06:07:00,
2013-11-08 22:12:00,46.2,45.1,30.07,ESE,113,2.0,7.0,0,0.00,,,0.00,meteohub,2013-11-09 06:12:00,
2013-11-08 22:17:00,46.2,45.1,30.07,ESE,113,0.0,7.0,0,0.00,,,0.00,meteohub,2013-11-09 06:17:00,
2013-11-08 22:22:00,46.2,45.1,30.07,ESE,113,0.0,7.0,0,0.00,,,0.00,meteohub,2013-11-09 06:22:00,
2013-11-08 22:27:00,46.0,45.1,30.07,ESE,113,0.0,5.0,0,0.00,,,0.00,meteohub,2013-11-09 06:27:00,
2013-11-08 22:32:00,46.0,45.1,30.07,ESE,113,0.0,5.0,0,0.00,,,0.00,meteohub,2013-11-09 06:32:00,
2013-11-08 22:37:00,45.9,45.1,30.07,ESE,113,0.0,2.0,0,0.00,,,0.00,meteohub,2013-11-09 06:37:00,
2013-11-08 22:42:00,45.9,45.1,30.07,ESE,113,0.0,2.0,0,0.00,,,0.00,meteohub,2013-11-09 06:42:00,
2013-11-08 22:47:00,45.7,45.1,30.06,ESE,113,0.0,1.0,0,0.00,,,0.00,meteohub,2013-11-09 06:47:00,
2013-11-08 22:52:00,45.7,45.1,30.06,ESE,113,0.0,1.0,0,0.00,,,0.00,meteohub,2013-11-09 06:52:00,
2013-11-08 22:57:00,45.7,45.1,30.06,ESE,113,0.0,2.0,0,0.00,,,0.00,meteohub,2013-11-09 06:57:00,
2013-11-08 23:02:00,45.5,45.0,30.06,ESE,113,0.0,2.0,0,0.00,,,0.00,meteohub,2013-11-09 07:02:00,
2013-11-08 23:07:00,45.5,45.0,30.06,ESE,113,0.0,5.0,0,0.00,,,0.00,meteohub,2013-11-09 07:07:00,
2013-11-08 23:12:00,45.3,45.0,30.06,ESE,113,0.0,5.0,0,0.00,,,0.00,meteohub,2013-11-09 07:12:00,
2013-11-08 23:17:00,45.3,45.0,30.06,ESE,113,1.0,4.0,0,0.00,,,0.00,meteohub,2013-11-09 07:17:00,
2013-11-08 23:22:00,45.1,45.0,30.06,ESE,113,0.0,4.0,0,0.00,,,0.00,meteohub,2013-11-09 07:22:00,
2013-11-08 23:28:00,45.1,45.0,30.06,ESE,113,0.0,5.0,0,0.00,,,0.00,meteohub,2013-11-09 07:28:00,
2013-11-08 23:33:00,45.1,45.0,30.06,ESE,113,1.0,5.0,0,0.00,,,0.00,meteohub,2013-11-09 07:33:00,
2013-11-08 23:38:00,45.1,45.0,30.06,ESE,113,0.0,4.0,0,0.00,,,0.00,meteohub,2013-11-09 07:38:00,
2013-11-08 23:43:00,45.0,45.0,30.06,ESE,113,2.0,4.0,0,0.00,,,0.00,meteohub,2013-11-09 07:43:00,
2013-11-08 23:48:00,45.0,45.0,30.05,ESE,113,0.0,5.0,0,0.00,,,0.00,meteohub,2013-11-09 07:48:00,
2013-11-08 23:54:00,44.8,45.0,30.05,ESE,113,0.0,5.0,0,0.00,,,0.00,meteohub,2013-11-09 07:54:00,
2013-11-08 23:59:00,44.8,44.8,30.05,ESE,113,0.0,4.0,0,0.00,,,0.00,meteohub,2013-11-09 07:59:00,